Time;durP1;ratioP1;P1;durP2;ratioP2;P2;SDS_P1;SDS_P2;PMS_P1;PMS_P2;Temp;Humidity;BMP_temperature;BMP_pressure;BME280_temperature;BME280_humidity;BME280_pressure;Samples;Min_cycle;Max_cycle;Signal;HPM_P1;HPM_P2
2022/09/27 00:00:44;;;;;;;5.63;3.13;;;;;;;11.55;100.00;99071.19;5089999;28;20044;-77
2022/09/27 00:03:10;;;;;;;8.60;3.35;;;;;;;11.50;100.00;99054.97;5056596;28;20132;-77
2022/09/27 00:05:36;;;;;;;10.00;3.17;;;;;;;11.56;100.00;99058.53;5092209;28;20020;-78
2022/09/27 00:08:02;;;;;;;9.52;3.42;;;;;;;11.64;100.00;99075.09;5093205;28;20027;-78
2022/09/27 00:10:27;;;;;;;8.80;3.22;;;;;;;11.63;100.00;99073.47;5096312;28;20134;-77
2022/09/27 00:12:54;;;;;;;11.05;3.00;;;;;;;11.64;100.00;99069.69;5096331;28;20074;-77
2022/09/27 00:15:19;;;;;;;13.65;3.95;;;;;;;11.54;100.00;99058.78;5093975;28;20491;-77
2022/09/27 00:17:50;;;;;;;19.08;4.03;;;;;;;11.46;100.00;99037.66;5094000;28;20150;-77
2022/09/27 00:20:18;;;;;;;8.90;3.05;;;;;;;11.43;100.00;99041.66;5094040;28;20046;-77
2022/09/27 00:22:43;;;;;;;10.43;3.05;;;;;;;11.64;100.00;99074.28;5077162;28;20034;-78
2022/09/27 00:25:08;;;;;;;12.55;3.65;;;;;;;11.64;100.00;99071.56;5093601;28;20036;-77
2022/09/27 00:27:34;;;;;;;15.65;3.55;;;;;;;11.60;100.00;99068.56;5076891;28;20035;-77
2022/09/27 00:29:59;;;;;;;13.13;3.42;;;;;;;11.56;100.00;99053.16;5060362;28;20073;-77
2022/09/27 00:32:24;;;;;;;7.18;2.90;;;;;;;11.58;100.00;99067.19;5093885;28;20032;-78
2022/09/27 00:34:50;;;;;;;14.15;3.13;;;;;;;11.51;100.00;99057.38;5093615;28;20213;-78
2022/09/27 00:37:15;;;;;;;10.68;2.97;;;;;;;11.48;100.00;99040.91;5093833;28;20038;-78
2022/09/27 00:39:41;;;;;;;12.85;3.15;;;;;;;11.55;100.00;99055.00;5076715;28;20400;-78
2022/09/27 00:42:10;;;;;;;7.10;2.22;;;;;;;11.54;100.00;99066.84;5093605;28;20044;-77
2022/09/27 00:44:39;;;;;;;5.70;2.30;;;;;;;11.57;100.00;99066.38;5094721;28;20446;-77
2022/09/27 00:47:24;;;;;;;9.55;3.08;;;;;;;11.57;100.00;99058.28;5053452;28;20133;-77
2022/09/27 00:49:58;;;;;;;5.93;2.25;;;;;;;11.61;100.00;99064.00;5073808;28;20557;-77
2022/09/27 00:52:32;;;;;;;9.02;2.60;;;;;;;11.44;100.00;99029.81;5094601;28;20047;-77
2022/09/27 00:55:13;;;;;;;8.77;2.40;;;;;;;11.52;100.00;99039.34;5098307;28;20082;-78
2022/09/27 00:57:41;;;;;;;8.88;2.42;;;;;;;11.42;100.00;99028.44;5095789;28;20508;-78
2022/09/27 01:00:09;;;;;;;7.90;2.60;;;;;;;11.59;100.00;99052.63;5095026;28;20099;-78
2022/09/27 01:02:38;;;;;;;10.52;2.35;;;;;;;11.08;100.00;98965.75;5095589;28;20051;-77
2022/09/27 01:05:07;;;;;;;3.53;2.38;;;;;;;11.52;100.00;99042.88;5062047;28;20039;-78
2022/09/27 01:07:33;;;;;;;8.98;2.25;;;;;;;11.50;100.00;99036.91;5097331;28;20027;-78
2022/09/27 01:09:59;;;;;;;4.80;1.92;;;;;;;11.62;100.00;99058.38;5078329;28;20071;-77
2022/09/27 01:12:59;;;;;;;4.00;2.20;;;;;;;11.62;100.00;99050.28;5061530;28;20035;-77
2022/09/27 01:15:57;;;;;;;3.80;2.00;;;;;;;11.52;100.00;99047.44;5069269;28;20036;-78
2022/09/27 01:18:35;;;;;;;3.25;1.95;;;;;;;11.58;100.00;99046.44;5095152;28;20028;-78
2022/09/27 01:21:25;;;;;;;3.88;2.08;;;;;;;11.60;100.00;99049.72;5079251;28;20036;-78
2022/09/27 01:24:15;;;;;;;3.53;1.77;;;;;;;11.41;100.00;99024.94;5095903;28;20060;-78
2022/09/27 01:26:59;;;;;;;5.65;2.10;;;;;;;11.59;100.00;99053.47;5094670;28;20028;-77
2022/09/27 01:29:57;;;;;;;2.92;1.88;;;;;;;11.54;100.00;99045.31;5094225;28;20039;-78
2022/09/27 01:32:49;;;;;;;3.70;1.85;;;;;;;11.55;100.00;99046.13;5094663;28;20443;-78
2022/09/27 01:35:27;;;;;;;6.47;2.20;;;;;;;11.52;100.00;99032.09;5064291;28;20024;-77
2022/09/27 01:38:11;;;;;;;3.70;1.73;;;;;;;11.61;100.00;99054.03;5092946;28;20020;-78
2022/09/27 01:41:03;;;;;;;5.53;1.90;;;;;;;11.60;100.00;99038.94;5093005;28;20056;-77
2022/09/27 01:43:39;;;;;;;2.38;1.65;;;;;;;11.50;100.00;99028.84;5065913;28;20055;-77
2022/09/27 01:46:10;;;;;;;2.42;1.90;;;;;;;11.54;100.00;99037.22;5093765;28;20067;-77
2022/09/27 01:48:41;;;;;;;3.10;1.80;;;;;;;11.47;100.00;99037.41;5092222;28;20398;-77
2022/09/27 01:51:17;;;;;;;6.38;1.70;;;;;;;11.61;100.00;99054.03;5060756;28;20032;-77
2022/09/27 01:53:47;;;;;;;6.47;1.85;;;;;;;11.49;100.00;99045.25;5093576;28;20024;-77
2022/09/27 01:56:17;;;;;;;4.47;1.80;;;;;;;11.59;100.00;99058.03;5093529;28;20107;-77
2022/09/27 01:58:53;;;;;;;4.78;1.90;;;;;;;11.54;100.00;99042.63;5092061;28;20104;-77
2022/09/27 02:01:22;;;;;;;3.72;1.85;;;;;;;11.41;100.00;99038.41;5093345;28;20020;-77
2022/09/27 02:03:51;;;;;;;3.97;1.80;;;;;;;11.21;100.00;98995.84;5092018;28;20035;-77
2022/09/27 02:06:23;;;;;;;4.18;1.88;;;;;;;11.45;100.00;99036.03;5092299;28;20120;-77
2022/09/27 02:09:05;;;;;;;4.30;1.80;;;;;;;11.64;100.00;99058.91;5093475;28;20034;-77
2022/09/27 02:11:30;;;;;;;4.68;1.80;;;;;;;11.59;100.00;99052.63;5091629;28;20115;-78
2022/09/27 02:14:03;;;;;;;3.30;1.77;;;;;;;11.66;100.00;99064.88;5091969;28;20107;-77
2022/09/27 02:16:53;;;;;;;2.67;1.88;;;;;;;11.65;100.00;99057.84;5125794;27;20081;-77
2022/09/27 02:19:37;;;;;;;4.63;1.80;;;;;;;11.63;100.00;99065.38;5062004;28;20109;-77
2022/09/27 02:22:38;;;;;;;4.20;1.90;;;;;;;11.61;100.00;99067.50;5091378;28;20055;-77
2022/09/27 02:25:36;;;;;;;3.47;1.77;;;;;;;11.51;100.00;99043.91;5097663;28;20067;-78
2022/09/27 02:28:54;;;;;;;5.68;1.92;;;;;;;11.53;100.00;99049.88;5091363;28;20047;-77
2022/09/27 02:31:20;;;;;;;4.22;2.10;;;;;;;11.65;100.00;99063.22;5087695;28;20035;-77
2022/09/27 02:33:54;;;;;;;3.15;1.63;;;;;;;11.62;100.00;99058.38;5079813;28;20039;-77
2022/09/27 02:36:20;;;;;;;4.38;1.70;;;;;;;11.54;100.00;99050.69;5091239;28;20028;-77
2022/09/27 02:38:46;;;;;;;4.75;1.90;;;;;;;11.67;100.00;99071.88;5074281;28;20040;-77
2022/09/27 02:41:17;;;;;;;4.43;1.77;;;;;;;11.66;100.00;99072.97;5074260;28;20023;-77
2022/09/27 02:43:47;;;;;;;3.55;2.00;;;;;;;11.67;100.00;99068.38;5092561;28;20034;-78
2022/09/27 02:46:30;;;;;;;2.92;1.77;;;;;;;11.67;100.00;99079.16;5092346;28;20571;-78
2022/09/27 02:49:33;;;;;;;4.45;2.20;;;;;;;11.61;100.00;99072.88;5091043;28;20040;-78
2022/09/27 02:52:14;;;;;;;6.97;2.10;;;;;;;11.56;100.00;99064.75;5092701;28;20470;-78
2022/09/27 02:54:56;;;;;;;9.13;2.33;;;;;;;11.45;100.00;99053.00;5091356;28;20028;-78
2022/09/27 02:57:25;;;;;;;8.77;2.15;;;;;;;11.63;100.00;99080.72;5065438;28;20040;-78
2022/09/27 03:00:08;;;;;;;13.73;2.55;;;;;;;11.54;100.00;99061.47;5092542;28;20028;-77
2022/09/27 03:03:11;;;;;;;11.63;2.30;;;;;;;11.65;100.00;99075.88;5092436;28;20051;-77
2022/09/27 03:05:44;;;;;;;10.82;2.55;;;;;;;11.63;100.00;99069.97;5067051;28;20101;-78
2022/09/27 03:08:11;;;;;;;8.65;2.20;;;;;;;11.65;100.00;99082.09;5092712;28;20028;-78
2022/09/27 03:10:37;;;;;;;7.65;2.33;;;;;;;11.63;100.00;99069.97;5058534;28;20028;-78
2022/09/27 03:13:03;;;;;;;9.65;2.67;;;;;;;11.44;100.00;99037.91;5090449;28;20050;-78
2022/09/27 03:15:29;;;;;;;6.75;2.40;;;;;;;11.55;100.00;99059.59;5092924;28;20027;-78
2022/09/27 03:17:55;;;;;;;4.82;2.25;;;;;;;11.21;100.00;99003.09;5078912;28;20032;-78
2022/09/27 03:20:21;;;;;;;3.22;2.08;;;;;;;11.57;100.00;99077.13;5076961;28;20062;-77
2022/09/27 03:22:47;;;;;;;6.10;2.65;;;;;;;11.50;100.00;99050.38;5074178;28;20569;-77
2022/09/27 03:25:13;;;;;;;3.28;2.17;;;;;;;11.51;100.00;99057.38;5073778;28;20028;-78
2022/09/27 03:27:38;;;;;;;4.95;2.25;;;;;;;11.60;100.00;99073.13;5057504;28;20038;-78
2022/09/27 03:30:06;;;;;;;3.40;2.00;;;;;;;11.53;100.00;99057.16;5091532;28;20035;-78
2022/09/27 03:32:31;;;;;;;4.55;2.20;;;;;;;11.52;100.00;99056.34;5091072;28;20028;-78
2022/09/27 03:34:57;;;;;;;4.43;2.30;;;;;;;11.62;100.00;99076.38;5091626;28;20118;-76
2022/09/27 03:37:22;;;;;;;4.40;2.00;;;;;;;11.56;100.00;99069.31;5075822;28;20020;-79
2022/09/27 03:39:48;;;;;;;4.18;1.92;;;;;;;11.60;100.00;99054.28;5074954;28;20067;-78
2022/09/27 03:42:13;;;;;;;7.20;2.53;;;;;;;11.62;100.00;99066.44;5094800;28;20542;-79
2022/09/27 03:44:39;;;;;;;7.53;2.30;;;;;;;11.64;100.00;99069.69;5058392;28;20052;-78
2022/09/27 03:47:05;;;;;;;4.55;2.25;;;;;;;11.35;100.00;99019.72;5077306;28;20020;-78
2022/09/27 03:49:31;;;;;;;4.85;2.40;;;;;;;11.67;100.00;99071.88;5091399;28;20024;-78
2022/09/27 03:51:57;;;;;;;4.80;2.30;;;;;;;11.46;100.00;99049.25;5093040;28;20035;-79
2022/09/27 03:54:22;;;;;;;5.07;2.63;;;;;;;11.64;100.00;99066.19;5074549;28;20505;-79
2022/09/27 03:56:48;;;;;;;3.92;2.30;;;;;;;11.60;100.00;99068.56;5074559;28;20032;-79
2022/09/27 03:59:13;;;;;;;5.57;2.35;;;;;;;11.48;100.00;99057.88;5092308;28;20038;-79
2022/09/27 04:01:39;;;;;;;3.25;2.40;;;;;;;11.56;100.00;99066.63;5074557;28;20112;-79
2022/09/27 04:04:04;;;;;;;2.65;2.08;;;;;;;11.57;100.00;99060.97;5076504;28;20036;-79
2022/09/27 04:06:30;;;;;;;4.18;2.20;;;;;;;11.32;100.00;99028.28;5063893;28;20493;-80
2022/09/27 04:08:58;;;;;;;4.30;2.38;;;;;;;11.62;100.00;99074.53;5081451;28;20028;-80
2022/09/27 04:11:23;;;;;;;2.55;2.10;;;;;;;11.53;100.00;99067.94;5081400;28;20020;-81
2022/09/27 04:13:49;;;;;;;3.10;2.20;;;;;;;11.55;100.00;99068.47;5082803;28;20398;-80
2022/09/27 04:16:15;;;;;;;4.20;2.33;;;;;;;11.19;100.00;99032.97;5080563;28;20077;-80
2022/09/27 04:18:41;;;;;;;3.75;2.40;;;;;;;11.51;100.00;99072.75;5080547;28;20051;-81
2022/09/27 04:21:06;;;;;;;4.63;2.50;;;;;;;11.47;100.00;99075.13;5133005;28;20035;-80
2022/09/27 04:23:32;;;;;;;4.68;1.95;;;;;;;11.52;100.00;99074.34;5078257;28;20523;-80
2022/09/27 04:25:58;;;;;;;4.78;2.55;;;;;;;11.47;100.00;99055.44;5056223;28;20116;-81
2022/09/27 04:28:23;;;;;;;3.50;2.40;;;;;;;11.35;100.00;99041.25;5072126;28;20081;-81
2022/09/27 04:30:48;;;;;;;4.25;2.70;;;;;;;11.27;100.00;99035.25;5055841;28;20479;-81
2022/09/27 04:33:14;;;;;;;4.55;2.20;;;;;;;11.48;100.00;99070.53;5101254;28;20027;-81
2022/09/27 04:38:23;;;;;;;4.20;2.10;;;;;;;11.51;100.00;99078.13;5097450;28;20035;-81
2022/09/27 04:40:49;;;;;;;3.47;2.20;;;;;;;11.57;100.00;99082.53;5064931;28;20028;-81
2022/09/27 04:43:17;;;;;;;3.17;2.03;;;;;;;11.27;100.00;99039.81;5101089;28;20047;-81
2022/09/27 04:45:43;;;;;;;3.30;2.08;;;;;;;11.57;100.00;99085.22;5106885;28;20100;-82
2022/09/27 04:48:09;;;;;;;5.20;2.40;;;;;;;11.35;100.00;99057.41;5109550;28;20028;-82
2022/09/27 04:51:03;;;;;;;2.45;2.20;;;;;;;11.59;100.00;99084.97;5110469;28;20048;-82
2022/09/27 04:53:29;;;;;;;4.47;2.00;;;;;;;11.58;100.00;99084.16;5071332;28;20090;-82
2022/09/27 04:56:14;;;;;;;4.05;1.90;;;;;;;11.54;100.00;99083.03;5089835;28;20035;-82
2022/09/27 04:58:40;;;;;;;4.00;1.88;;;;;;;11.35;100.00;99079.78;5071447;28;20033;-81
2022/09/27 05:01:08;;;;;;;4.07;1.98;;;;;;;11.53;100.00;99092.19;5087886;28;20112;-81
2022/09/27 05:03:33;;;;;;;1.83;1.67;;;;;;;11.60;100.00;99087.41;5071158;28;20029;-81
2022/09/27 05:06:18;;;;;;;3.20;1.88;;;;;;;11.63;100.00;99086.13;5072065;28;20037;-81
2022/09/27 05:08:44;;;;;;;3.67;1.63;;;;;;;10.76;100.00;98953.75;5105042;28;20035;-81
2022/09/27 05:11:11;;;;;;;5.38;2.00;;;;;;;10.84;100.00;98978.59;5110821;28;20072;-81
2022/09/27 05:13:36;;;;;;;3.70;1.67;;;;;;;10.25;100.00;98884.84;5112782;28;20020;-81
2022/09/27 05:16:04;;;;;;;4.22;1.90;;;;;;;10.65;100.00;98962.69;5093174;28;20087;-81
2022/09/27 05:18:32;;;;;;;5.80;1.80;;;;;;;10.73;100.00;98959.63;5109634;28;20053;-81
2022/09/27 05:21:01;;;;;;;3.25;1.70;;;;;;;10.68;100.00;98972.97;5109785;28;20034;-81
2022/09/27 05:23:27;;;;;;;2.95;1.30;;;;;;;10.32;100.00;98925.84;5094042;28;20028;-82
2022/09/27 05:25:56;;;;;;;2.33;1.30;;;;;;;10.93;100.00;99002.16;5113891;28;20124;-81
2022/09/27 05:28:23;;;;;;;4.25;1.42;;;;;;;10.42;100.00;98920.66;5112877;28;20081;-81
2022/09/27 05:31:07;;;;;;;4.15;1.25;;;;;;;11.68;100.00;99115.81;5110939;28;20024;-82
2022/09/27 05:33:33;;;;;;;2.03;1.50;;;;;;;11.60;100.00;99100.88;5111945;28;20027;-81
2022/09/27 05:35:58;;;;;;;2.08;1.60;;;;;;;10.87;100.00;98976.22;5111661;28;20103;-81
2022/09/27 05:38:24;;;;;;;6.03;1.40;;;;;;;10.52;100.00;98938.81;5109229;28;20032;-81
2022/09/27 05:40:50;;;;;;;3.08;1.40;;;;;;;10.30;100.00;98888.47;5108004;28;20024;-81
2022/09/27 05:43:20;;;;;;;2.10;1.25;;;;;;;10.30;100.00;98891.16;5108846;28;20486;-81
2022/09/27 05:45:46;;;;;;;6.82;1.60;;;;;;;10.27;100.00;98894.34;5107703;28;20040;-81
2022/09/27 05:48:13;;;;;;;3.65;1.27;;;;;;;11.76;100.00;99129.69;5105897;28;20114;-80
2022/09/27 05:50:39;;;;;;;3.65;1.70;;;;;;;11.04;100.00;98998.56;5100677;28;20028;-80
2022/09/27 05:53:05;;;;;;;3.33;1.52;;;;;;;11.36;100.00;99048.31;5101182;28;20020;-80
2022/09/27 05:55:30;;;;;;;3.03;1.33;;;;;;;11.90;100.00;99137.44;5100971;28;20070;-80
2022/09/27 05:58:06;;;;;;;1.63;1.40;;;;;;;11.49;100.00;99050.63;5099461;28;20588;-80
2022/09/27 06:00:32;;;;;;;2.92;1.73;;;;;;;11.98;100.00;99135.13;5111342;28;20035;-80
2022/09/27 06:03:00;;;;;;;2.40;1.70;;;;;;;11.86;100.00;99112.88;5099203;28;20029;-80
2022/09/27 06:05:28;;;;;;;5.63;1.70;;;;;;;11.96;100.00;99134.56;5116319;28;20040;-80
2022/09/27 06:07:59;;;;;;;3.38;1.55;;;;;;;11.97;100.00;99124.59;5115976;28;20015;-81
2022/09/27 06:10:25;;;;;;;2.78;1.70;;;;;;;11.99;100.00;99142.16;5110468;28;20040;-80
2022/09/27 06:12:51;;;;;;;3.40;1.67;;;;;;;11.85;100.00;99111.22;5103637;28;20043;-80
2022/09/27 06:15:17;;;;;;;4.07;1.80;;;;;;;11.94;100.00;99131.31;5084689;28;20450;-80
2022/09/27 06:17:43;;;;;;;3.53;1.70;;;;;;;11.96;100.00;99141.84;5082972;28;20043;-81
2022/09/27 06:20:09;;;;;;;4.65;1.85;;;;;;;12.01;100.00;99139.22;5084118;28;20028;-81
2022/09/27 06:22:35;;;;;;;1.90;1.70;;;;;;;12.01;100.00;99138.41;5099668;28;20040;-80
2022/09/27 06:25:02;;;;;;;8.13;1.88;;;;;;;11.95;100.00;99126.72;5099478;28;20023;-80
2022/09/27 06:27:29;;;;;;;5.80;2.10;;;;;;;12.11;100.00;99149.31;5082623;28;20075;-80
2022/09/27 06:29:55;;;;;;;5.28;1.92;;;;;;;12.12;100.00;99148.25;5081400;28;20039;-80
2022/09/27 06:32:21;;;;;;;2.80;2.00;;;;;;;11.96;100.00;99133.75;5082107;28;20028;-81
2022/09/27 06:34:46;;;;;;;3.08;1.88;;;;;;;12.11;100.00;99158.22;5081962;28;20038;-81
2022/09/27 06:37:11;;;;;;;4.07;2.13;;;;;;;12.12;100.00;99164.41;5065160;28;20035;-80
2022/09/27 06:39:37;;;;;;;7.18;2.20;;;;;;;11.96;100.00;99133.75;5082250;28;20513;-79
2022/09/27 06:42:02;;;;;;;4.00;2.10;;;;;;;11.87;100.00;99121.78;5100456;28;20549;-81
2022/09/27 06:44:28;;;;;;;4.47;2.00;;;;;;;12.04;100.00;99162.97;5084446;28;20036;-80
2022/09/27 06:46:54;;;;;;;3.50;1.92;;;;;;;12.10;100.00;99153.09;5081479;28;20048;-81
2022/09/27 06:49:24;;;;;;;3.47;1.90;;;;;;;12.07;100.00;99146.31;5055527;28;20129;-79
2022/09/27 06:51:50;;;;;;;6.03;2.30;;;;;;;12.07;100.00;99161.66;5087908;28;20040;-79
2022/09/27 06:54:15;;;;;;;3.00;2.05;;;;;;;12.07;100.00;99170.56;5076052;28;20039;-78
2022/09/27 06:56:40;;;;;;;4.80;2.10;;;;;;;12.01;100.00;99168.84;5058196;28;20490;-80
2022/09/27 07:01:51;;;;;;;4.38;2.53;;;;;;;12.12;100.00;99170.66;5093085;28;20039;-79
2022/09/27 07:04:17;;;;;;;6.55;2.53;;;;;;;12.09;100.00;99159.56;5080388;28;20039;-81
2022/09/27 07:06:43;;;;;;;3.75;2.30;;;;;;;12.07;100.00;99172.44;5094682;28;20057;-78
2022/09/27 07:09:09;;;;;;;2.90;2.00;;;;;;;11.95;100.00;99164.47;5074162;28;20036;-80
2022/09/27 07:11:36;;;;;;;4.45;2.47;;;;;;;12.14;100.00;99173.91;5092388;28;20028;-77
2022/09/27 07:14:09;;;;;;;6.10;2.45;;;;;;;12.06;100.00;99160.84;5094348;28;20047;-81
2022/09/27 07:16:34;;;;;;;6.15;2.30;;;;;;;12.19;100.00;99175.88;5081698;28;20064;-79
2022/09/27 07:18:59;;;;;;;2.80;1.70;;;;;;;12.09;100.00;99160.34;5077001;28;20046;-77
2022/09/27 07:21:25;;;;;;;3.85;1.85;;;;;;;12.18;100.00;99177.72;5091679;28;20024;-77
2022/09/27 07:23:51;;;;;;;3.90;2.25;;;;;;;12.19;100.00;99179.38;5091719;28;20075;-77
2022/09/27 07:26:16;;;;;;;6.43;2.30;;;;;;;12.34;100.00;99180.63;5074966;28;20103;-77
2022/09/27 07:28:42;;;;;;;4.18;2.10;;;;;;;12.37;100.00;99180.13;5094016;28;20039;-77
2022/09/27 07:31:08;;;;;;;4.13;1.98;;;;;;;12.42;100.00;99185.59;5094182;28;20028;-77
2022/09/27 07:33:33;;;;;;;5.32;2.13;;;;;;;12.34;100.00;99181.44;5077681;28;20062;-77
2022/09/27 07:35:59;;;;;;;4.32;1.90;;;;;;;12.13;100.00;99180.38;5076235;28;20111;-77
2022/09/27 07:38:25;;;;;;;4.38;2.22;;;;;;;12.52;100.00;99196.50;5092049;28;20027;-77
2022/09/27 07:40:50;;;;;;;7.25;2.42;;;;;;;12.44;100.00;99194.25;5092125;28;20040;-77
2022/09/27 07:43:16;;;;;;;6.97;1.90;;;;;;;12.48;100.00;99183.75;5093457;28;20489;-78
2022/09/27 07:45:42;;;;;;;7.03;1.90;;;;;;;12.73;100.00;99207.53;5093873;28;20510;-78
2022/09/27 07:48:09;;;;;;;5.57;1.98;;;;;;;12.77;100.00;99198.69;5092117;28;20056;-77
2022/09/27 07:50:37;;;;;;;3.42;1.65;;;;;;;12.82;100.00;99211.44;5091073;28;20089;-77
2022/09/27 07:53:04;;;;;;;4.50;1.80;;;;;;;12.80;100.00;99181.16;5056301;28;20040;-78
2022/09/27 07:55:30;;;;;;;4.53;1.80;;;;;;;12.95;100.00;99219.13;5092700;28;20479;-78
2022/09/27 07:58:03;;;;;;;6.68;2.10;;;;;;;12.89;100.00;99209.34;5074440;28;20115;-78
2022/09/27 08:00:29;;;;;;;5.07;1.63;;;;;;;13.01;100.00;99220.00;5077950;28;20115;-78
2022/09/27 08:02:54;;;;;;;3.78;1.70;;;;;;;13.21;100.00;99219.38;5094166;28;20120;-78
2022/09/27 08:05:20;;;;;;;7.60;1.88;;;;;;;13.29;100.00;99229.78;5076795;28;20094;-78
2022/09/27 08:07:45;;;;;;;4.82;1.80;;;;;;;13.28;100.00;99220.06;5075850;28;20568;-77
2022/09/27 08:10:12;;;;;;;5.93;1.80;;;;;;;13.35;100.00;99234.97;5093436;28;20082;-77
2022/09/27 08:12:37;;;;;;;4.65;1.70;;;;;;;13.33;100.00;99222.78;5051878;28;20097;-79
2022/09/27 08:15:03;;;;;;;4.35;1.85;;;;;;;13.49;100.00;99221.03;5090081;28;20032;-78
2022/09/27 08:17:30;;;;;;;4.53;1.90;;;;;;;13.20;100.00;99186.16;5091887;28;20051;-78
2022/09/27 08:19:56;;;;;;;5.75;2.35;;;;;;;13.48;100.00;99228.34;5096397;28;20024;-80
2022/09/27 08:23:03;;;;;;;5.30;2.30;;;;;;;13.57;100.00;99221.38;5104197;28;20075;-80
2022/09/27 08:25:29;;;;;;;3.15;2.08;;;;;;;13.67;100.00;99244.16;5109126;28;20043;-79
2022/09/27 08:28:00;;;;;;;2.10;1.83;;;;;;;13.72;100.00;99236.09;5112720;28;20012;-79
2022/09/27 08:30:29;;;;;;;5.13;2.33;;;;;;;13.58;100.00;99201.41;5097174;28;20046;-80
2022/09/27 08:32:56;;;;;;;4.95;1.98;;;;;;;13.91;100.00;99237.34;5115252;28;20016;-80
2022/09/27 08:35:22;;;;;;;5.80;2.10;;;;;;;13.84;100.00;99228.59;5115647;28;20047;-80
2022/09/27 08:37:58;;;;;;;12.30;2.58;;;;;;;13.86;100.00;99237.28;5115881;28;20032;-78
2022/09/27 08:40:36;;;;;;;5.72;2.17;;;;;;;13.67;100.00;99196.31;5114675;28;20078;-79
2022/09/27 08:43:09;;;;;;;2.67;1.90;;;;;;;14.00;100.00;99243.88;5117341;28;20023;-78
2022/09/27 08:45:53;;;;;;;4.00;1.80;;;;;;;13.71;100.00;99224.47;5119205;28;20548;-79
2022/09/27 08:48:19;;;;;;;3.10;1.55;;;;;;;13.81;100.00;99237.25;5119473;28;20023;-79
2022/09/27 08:50:45;;;;;;;3.05;1.60;;;;;;;14.06;100.00;99253.66;5087347;28;20012;-80
2022/09/27 08:53:25;;;;;;;3.05;1.60;;;;;;;13.94;100.00;99215.19;5083532;28;20024;-79
2022/09/27 08:55:53;;;;;;;3.67;1.85;;;;;;;14.04;100.00;99236.09;5117735;28;20095;-79
2022/09/27 08:58:39;;;;;;;4.25;1.90;;;;;;;14.00;100.00;99248.47;5119846;28;20019;-79
2022/09/27 09:01:12;;;;;;;4.75;2.00;;;;;;;13.63;100.00;99179.00;5117722;28;20032;-79
2022/09/27 09:03:44;;;;;;;4.95;1.90;;;;;;;13.72;100.00;99174.75;5119025;28;20050;-79
2022/09/27 09:06:15;;;;;;;3.40;1.60;;;;;;;14.31;100.00;99249.50;5117721;28;20020;-80
2022/09/27 09:08:56;;;;;;;7.18;1.85;;;;;;;14.09;100.00;99222.56;5115939;28;20032;-79
2022/09/27 09:15:03;;;;;;;3.22;1.90;;;;;;;14.32;100.00;99243.00;5118543;28;20038;-81
2022/09/27 09:17:35;;;;;;;6.35;1.85;;;;;;;14.25;100.00;99250.53;5115922;28;20036;-80
2022/09/27 09:20:28;;;;;;;5.72;2.10;;;;;;;14.48;100.00;99252.84;5114928;28;20091;-81
2022/09/27 09:23:29;;;;;;;4.45;1.95;;;;;;;14.73;100.00;99254.06;5115689;28;20032;-81
2022/09/27 09:26:13;;;;;;;4.70;2.22;;;;;;;14.82;100.00;99249.78;5107428;28;20051;-80
2022/09/27 09:29:18;;;;;;;4.57;2.15;;;;;;;14.50;100.00;99250.72;5109129;28;20036;-80
2022/09/27 09:31:58;;;;;;;5.77;1.70;;;;;;;14.77;100.00;99252.47;5077040;28;20043;-80
2022/09/27 09:34:50;;;;;;;4.47;2.10;;;;;;;14.80;100.00;99252.75;5107429;28;20043;-80
2022/09/27 09:37:30;;;;;;;4.05;1.63;;;;;;;14.38;100.00;99219.50;5124525;28;20020;-80
2022/09/27 09:40:07;;;;;;;4.70;2.33;;;;;;;14.78;100.00;99256.81;5093325;28;20028;-80
2022/09/27 09:42:49;;;;;;;3.55;1.90;;;;;;;14.61;100.00;99202.84;5108401;28;20028;-80
2022/09/27 09:45:29;;;;;;;4.28;1.95;;;;;;;15.12;100.00;99251.75;5082292;28;20078;-80
2022/09/27 09:48:14;;;;;;;4.45;2.10;;;;;;;15.17;100.00;99243.66;5099245;28;20533;-80
2022/09/27 09:50:43;;;;;;;4.30;1.73;;;;;;;15.19;100.00;99255.03;5096790;28;20497;-79
2022/09/27 09:53:25;;;;;;;5.88;1.90;;;;;;;15.09;100.00;99243.34;5105175;28;20042;-79
2022/09/27 09:55:56;;;;;;;5.85;1.98;;;;;;;15.24;100.00;99251.53;5103490;28;20035;-80
2022/09/27 09:58:39;;;;;;;6.72;1.90;;;;;;;15.12;100.00;99259.06;5084347;28;20024;-80
2022/09/27 10:01:19;;;;;;;4.15;1.73;;;;;;;15.28;100.00;99248.00;5097981;28;20516;-80
2022/09/27 10:03:45;;;;;;;4.03;1.80;;;;;;;15.26;100.00;99228.50;5094604;28;20024;-78
2022/09/27 10:06:14;;;;;;;4.28;1.80;;;;;;;15.47;100.00;99253.75;5098836;28;20031;-80
2022/09/27 10:08:40;;;;;;;3.13;1.70;;;;;;;15.39;100.00;99248.84;5094845;28;20032;-77
2022/09/27 10:11:07;;;;;;;6.40;1.80;;;;;;;15.58;100.00;99245.63;5092944;28;20047;-77
2022/09/27 10:13:35;;;;;;;3.28;1.65;;;;;;;15.40;100.00;99220.66;5092936;28;20028;-77
2022/09/27 10:16:07;;;;;;;4.65;2.00;;;;;;;15.43;100.00;99249.94;5072575;28;20136;-78
2022/09/27 10:18:37;;;;;;;6.38;2.20;;;;;;;15.39;100.00;99220.91;5080258;28;20036;-77
2022/09/27 10:21:09;;;;;;;3.45;1.60;;;;;;;15.61;100.00;99248.59;5093127;28;20442;-78
2022/09/27 10:23:36;;;;;;;4.85;1.70;;;;;;;15.69;100.00;99258.94;5093610;28;20028;-78
2022/09/27 10:26:03;;;;;;;5.95;2.08;;;;;;;15.52;100.00;99255.63;5087034;28;20016;-78
2022/09/27 10:28:42;;;;;;;6.93;2.05;;;;;;;15.55;100.00;99246.97;5093031;28;20235;-78
2022/09/27 10:31:34;;;;;;;5.00;1.60;;;;;;;15.25;100.00;99226.06;5095156;28;20027;-79
2022/09/27 10:34:04;;;;;;;5.22;1.85;;;;;;;15.02;100.00;99195.66;5100030;28;20098;-79
2022/09/27 10:36:33;;;;;;;7.60;1.70;;;;;;;15.71;100.00;99264.09;5098626;28;20024;-79
2022/09/27 10:39:01;;;;;;;2.47;1.40;;;;;;;15.26;99.28;99238.50;5099912;28;20043;-78
2022/09/27 10:41:30;;;;;;;5.60;1.88;;;;;;;15.52;98.97;99255.63;5065466;28;20482;-78
2022/09/27 10:43:56;;;;;;;5.70;1.83;;;;;;;15.48;98.94;99254.53;5097668;28;20036;-78
2022/09/27 10:46:27;;;;;;;5.75;1.70;;;;;;;15.29;97.35;99246.09;5093375;28;20065;-77
2022/09/27 10:49:20;;;;;;;4.65;1.58;;;;;;;15.38;98.13;99259.94;5097014;28;20028;-77
2022/09/27 10:51:49;;;;;;;2.50;1.50;;;;;;;15.45;98.90;99264.03;5072068;28;20024;-77
2022/09/27 10:54:23;;;;;;;6.85;1.50;;;;;;;15.29;99.00;99240.69;5094331;28;20024;-79
2022/09/27 10:56:57;;;;;;;4.70;1.95;;;;;;;15.37;98.85;99237.47;5094687;28;20032;-78
2022/09/27 10:59:23;;;;;;;;;;;;;;;15.48;98.67;99255.34;5061081;28;20050;-78
2022/09/27 11:01:51;;;;;;;3.20;2.00;;;;;;;15.19;100.00;99260.44;5111375;28;19916;-78
2022/09/27 11:04:33;;;;;;;4.13;1.83;;;;;;;15.10;100.00;99256.66;5072418;28;20032;-78
2022/09/27 11:07:17;;;;;;;5.10;1.95;;;;;;;15.08;100.00;99255.28;5085284;28;20036;-77
2022/09/27 11:10:05;;;;;;;6.78;2.15;;;;;;;15.26;100.00;99257.47;5091587;28;20115;-78
2022/09/27 11:12:31;;;;;;;6.60;1.95;;;;;;;15.38;100.00;99252.63;5075263;28;20028;-78
2022/09/27 11:15:13;;;;;;;5.20;1.90;;;;;;;15.47;100.00;99259.16;5092903;28;20051;-78
2022/09/27 11:17:51;;;;;;;3.40;1.80;;;;;;;15.30;100.00;99255.88;5062922;28;20024;-78
2022/09/27 11:20:51;;;;;;;6.90;2.00;;;;;;;15.32;100.00;99253.69;5091686;28;20032;-77
2022/09/27 11:23:49;;;;;;;3.70;1.80;;;;;;;15.32;100.00;99240.16;5076315;28;20047;-78
2022/09/27 11:26:52;;;;;;;5.10;1.70;;;;;;;15.11;100.00;99246.63;5090776;28;20557;-78
2022/09/27 11:29:35;;;;;;;3.17;1.88;;;;;;;15.05;100.00;99259.31;5092367;28;20122;-78
2022/09/27 11:32:19;;;;;;;3.67;1.70;;;;;;;15.09;100.00;99265.84;5091171;28;20060;-78
2022/09/27 11:35:22;;;;;;;1.92;1.50;;;;;;;14.88;100.00;99248.72;5091837;28;20038;-78
2022/09/27 11:38:09;;;;;;;6.18;2.28;;;;;;;14.74;100.00;99266.53;5065527;28;20084;-78
2022/09/27 11:40:49;;;;;;;3.30;1.55;;;;;;;14.47;100.00;99251.22;5092474;28;20024;-80
2022/09/27 11:43:25;;;;;;;5.28;1.83;;;;;;;14.49;100.00;99265.28;5092336;28;20077;-79
2022/09/27 11:46:23;;;;;;;2.80;1.60;;;;;;;14.40;100.00;99263.34;5091939;28;20044;-78
2022/09/27 11:49:01;;;;;;;3.53;1.63;;;;;;;14.29;100.00;99257.06;5092064;28;20111;-77
2022/09/27 11:51:35;;;;;;;4.45;1.80;;;;;;;14.46;100.00;99262.28;5058168;28;20049;-77
2022/09/27 11:54:11;;;;;;;12.70;2.65;;;;;;;14.27;100.00;99234.84;5091803;28;20062;-79
2022/09/27 11:56:37;;;;;;;3.47;1.75;;;;;;;14.65;100.00;99265.41;5092500;28;20110;-78